Iliysk North Airport

Jump to: basic info | weather | comments

Related pages: nearby airports | nearby navaids

Basic information (top)

Location: lon 43.998299, lat 77.139099, elev 2,343 ft / 714 m msl
Status: small_airport

Weather (top)

Current conditions for Almaty Airport 39nm (72km) S (rec'd 2015/04/25 22:30Z):

UAAA 252230Z 12002MPS 9999 SCT100 BKN200 11/05 Q1005 R88/65D NOSIG

Airport forecast for Almaty Airport 39nm (72km) S (rec'd 2015/04/25 18:18Z):

TAF TAF UAAA 251700Z 2518/2618 16004MPS 9999 SCT050CB BKN100 TX27/2609Z TN12/2601Z 
      TEMPO 2600/2608 TS 
      BECMG 2608/2609 26006MPS BKN050CB OVC100 
      TEMPO 2608/2618 VRB20MPS 2000 TSRA SQ BKN030CB OVC100

Latest comments (top)

No comments yet for Iliysk North Airport

More... (top)

See also NOTAMs and nearby airports and navaids, or visit the Iliysk North Airport page at the main OurAirports website..